createdAt,value
2018-06-13T00:00:57.000Z,22.59
2018-06-13T00:10:57.000Z,22.57
2018-06-13T00:20:57.000Z,22.54
2018-06-13T00:30:57.000Z,22.51
2018-06-13T00:40:57.000Z,22.49
2018-06-13T00:50:57.000Z,22.46
2018-06-13T01:00:57.000Z,22.43
2018-06-13T01:10:58.000Z,22.42
2018-06-13T01:20:58.000Z,22.4
2018-06-13T01:30:58.000Z,22.37
2018-06-13T01:40:58.000Z,22.34
2018-06-13T01:50:58.000Z,22.32
2018-06-13T02:00:58.000Z,22.3
2018-06-13T02:10:58.000Z,22.27
2018-06-13T02:20:58.000Z,22.26
2018-06-13T02:30:58.000Z,22.23
2018-06-13T02:40:58.000Z,22.2
2018-06-13T02:50:58.000Z,22.19
2018-06-13T03:00:58.000Z,22.16
2018-06-13T03:10:58.000Z,22.14
2018-06-13T03:20:58.000Z,22.14
2018-06-13T03:30:59.000Z,22.11
2018-06-13T03:40:58.000Z,22.1
2018-06-13T03:50:58.000Z,22.07
2018-06-13T04:00:58.000Z,22.06
2018-06-13T04:10:58.000Z,22.03
2018-06-13T04:20:58.000Z,22.04
2018-06-13T04:30:58.000Z,22.01
2018-06-13T04:40:58.000Z,22.04
2018-06-13T04:50:58.000Z,22
2018-06-13T05:00:58.000Z,21.97
2018-06-13T05:10:58.000Z,21.99
2018-06-13T05:20:58.000Z,22.02
2018-06-13T05:30:58.000Z,22.01
2018-06-13T05:40:58.000Z,21.85
2018-06-13T05:50:58.000Z,21.81
2018-06-13T06:00:58.000Z,21.9
2018-06-13T06:10:58.000Z,21.94
2018-06-13T06:20:58.000Z,21.98
2018-06-13T06:30:58.000Z,21.97
2018-06-13T06:40:58.000Z,22.01
2018-06-13T06:50:58.000Z,22.03
2018-06-13T07:00:58.000Z,22.1
2018-06-13T07:10:58.000Z,22.13
2018-06-13T07:20:58.000Z,22.1
2018-06-13T07:40:58.000Z,22.06
2018-06-13T07:50:58.000Z,22.07
2018-06-13T08:00:58.000Z,22
2018-06-13T08:10:58.000Z,22.05
2018-06-13T08:20:58.000Z,22.1
2018-06-13T08:30:58.000Z,22.11
2018-06-13T08:41:00.000Z,22
2018-06-13T08:50:58.000Z,22.12
2018-06-13T09:00:58.000Z,21.98
2018-06-13T09:10:58.000Z,22.1
2018-06-13T09:30:58.000Z,22.18
2018-06-13T09:40:59.000Z,22.34
2018-06-13T09:50:59.000Z,22.49
2018-06-13T10:00:59.000Z,22.42
2018-06-13T10:10:59.000Z,22.4
2018-06-13T10:20:59.000Z,22.45
2018-06-13T10:30:59.000Z,22.46
2018-06-13T10:40:59.000Z,22.46
2018-06-13T10:50:59.000Z,22.54
2018-06-13T11:00:59.000Z,22.59
2018-06-13T11:10:59.000Z,22.52
2018-06-13T11:20:59.000Z,22.45
2018-06-13T11:30:59.000Z,22.33
2018-06-13T11:40:59.000Z,22.41
2018-06-13T11:50:59.000Z,22.46
2018-06-13T12:01:00.000Z,22.52
2018-06-13T12:10:59.000Z,22.53
2018-06-13T12:20:59.000Z,22.87
2018-06-13T12:30:59.000Z,22.49
2018-06-13T12:40:59.000Z,22.69
2018-06-13T12:50:59.000Z,22.69
2018-06-13T13:00:59.000Z,22.44
2018-06-13T13:10:59.000Z,22.48
2018-06-13T13:20:59.000Z,22.57
2018-06-13T13:30:59.000Z,22.62
2018-06-13T13:40:59.000Z,22.82
2018-06-13T13:50:59.000Z,22.7
2018-06-13T14:00:59.000Z,22.76
2018-06-13T14:10:59.000Z,22.83
2018-06-13T14:21:00.000Z,23.06
2018-06-13T14:30:59.000Z,22.75
2018-06-13T14:40:59.000Z,22.86
2018-06-13T14:50:59.000Z,22.67
2018-06-13T15:00:59.000Z,22.68
2018-06-13T15:11:00.000Z,22.68
2018-06-13T15:21:02.000Z,22.73
2018-06-13T15:30:59.000Z,22.85
2018-06-13T15:40:59.000Z,22.74
2018-06-13T15:50:59.000Z,22.69
2018-06-13T16:00:59.000Z,22.61
2018-06-13T16:10:59.000Z,22.7
2018-06-13T16:20:59.000Z,22.71
2018-06-13T16:31:00.000Z,22.66
2018-06-13T16:40:59.000Z,22.63
2018-06-13T16:50:59.000Z,22.72
2018-06-13T17:00:59.000Z,22.77
2018-06-13T17:10:59.000Z,22.72
2018-06-13T17:20:59.000Z,22.66
2018-06-13T17:31:00.000Z,22.71
2018-06-13T17:41:01.000Z,22.73
2018-06-13T17:50:59.000Z,22.68
2018-06-13T18:01:01.000Z,22.73
2018-06-13T18:11:00.000Z,22.65
2018-06-13T18:21:00.000Z,22.56
2018-06-13T18:31:01.000Z,22.56
2018-06-13T18:41:00.000Z,22.68
2018-06-13T18:51:00.000Z,22.62
2018-06-13T19:01:00.000Z,22.56
2018-06-13T19:11:00.000Z,22.55
2018-06-13T19:21:00.000Z,22.49
2018-06-13T19:31:00.000Z,22.45
2018-06-13T19:41:00.000Z,22.46
2018-06-13T19:51:00.000Z,22.48
2018-06-13T20:01:00.000Z,22.46
2018-06-13T20:11:00.000Z,22.57
2018-06-13T20:21:00.000Z,22.47
2018-06-13T20:31:00.000Z,22.4
2018-06-13T20:41:00.000Z,22.38
2018-06-13T20:51:00.000Z,22.34
2018-06-13T21:01:00.000Z,22.33
2018-06-13T21:11:00.000Z,22.33
2018-06-13T21:21:00.000Z,22.3
2018-06-13T21:31:00.000Z,22.28
2018-06-13T21:41:00.000Z,22.26
2018-06-13T21:51:00.000Z,22.21
2018-06-13T22:11:00.000Z,22.21
2018-06-13T22:21:00.000Z,22.2
2018-06-13T22:31:00.000Z,22.16
2018-06-13T22:41:00.000Z,22.12
2018-06-13T22:51:00.000Z,22.06
2018-06-13T23:01:00.000Z,22.03
2018-06-13T23:11:00.000Z,22
2018-06-13T23:21:00.000Z,21.96
2018-06-13T23:31:00.000Z,21.92
2018-06-13T23:41:00.000Z,21.89
2018-06-13T23:51:00.000Z,21.85
